Terminal Aerodrome Forecast
Issued by NWS Binghamton, NY

Home | Current Version | Previous Version | Text Only | Print | Product List | Glossary On
Versions: 1 2 3 4 5 6 7 8 9 10 11 12 13 14 15 16
908
FTUS41 KBGM 242324
TAFBGM
TAF
KBGM 242324Z 2500/2524 20009KT P6SM SKC
     FM250400 19007KT P6SM FEW250 WS020/22040KT
     FM251300 20009G16KT P6SM BKN110
     FM252100 26008KT P6SM -SHRA BKN035 OVC080=

USA.gov is the U.S. government's official web portal to all federal, state and local government web resources and services.